Time;durP1;ratioP1;P1;durP2;ratioP2;P2;SDS_P1;SDS_P2;PMS_P1;PMS_P2;Temp;Humidity;BMP_temperature;BMP_pressure;BME280_temperature;BME280_humidity;BME280_pressure;Samples;Min_cycle;Max_cycle;Signal;HPM_P1;HPM_P2
2023/12/13 00:01:32;;;;;;;37.67;16.58;;;-1.20;99.90;;;;;;4990641;28;20183;-84
2023/12/13 00:04:00;;;;;;;40.92;17.10;;;-1.30;99.90;;;;;;4982124;28;20243;-83
2023/12/13 00:06:28;;;;;;;36.08;16.05;;;-1.20;99.90;;;;;;4968113;28;20180;-84
2023/12/13 00:08:56;;;;;;;36.15;15.27;;;-1.30;99.90;;;;;;4969401;28;20180;-81
2023/12/13 00:11:24;;;;;;;41.97;17.48;;;-1.30;99.90;;;;;;4967506;28;20245;-81
2023/12/13 00:13:51;;;;;;;44.10;15.75;;;-1.20;99.90;;;;;;4968739;28;20594;-85
2023/12/13 00:16:21;;;;;;;48.63;17.23;;;-1.30;99.90;;;;;;4971416;28;20267;-84
2023/12/13 00:18:48;;;;;;;47.97;16.98;;;-1.20;99.90;;;;;;4970679;28;20208;-82
2023/12/13 00:21:17;;;;;;;40.53;15.73;;;-1.20;99.90;;;;;;4970838;28;20191;-83
2023/12/13 00:23:46;;;;;;;46.60;18.42;;;-1.20;99.90;;;;;;4966458;28;20255;-85
2023/12/13 00:26:18;;;;;;;39.88;16.60;;;-1.20;99.90;;;;;;4951245;28;20185;-84
2023/12/13 00:28:46;;;;;;;60.80;17.40;;;-1.20;99.90;;;;;;4950060;28;20203;-84
2023/12/13 00:31:13;;;;;;;38.58;15.70;;;-1.30;99.90;;;;;;4951281;28;20271;-85
2023/12/13 00:33:41;;;;;;;47.13;17.02;;;-1.30;99.90;;;;;;4951076;28;20188;-83
2023/12/13 00:36:09;;;;;;;49.17;16.98;;;-1.30;99.90;;;;;;4951290;28;20188;-84
2023/12/13 00:38:36;;;;;;;44.25;16.33;;;-1.30;99.90;;;;;;4951155;28;20208;-83
2023/12/13 00:41:04;;;;;;;50.22;17.42;;;-1.30;99.90;;;;;;4950854;28;20182;-83
2023/12/13 00:43:32;;;;;;;68.88;19.13;;;-1.30;99.90;;;;;;4951084;29;20185;-82
2023/12/13 00:45:59;;;;;;;40.78;16.63;;;-1.30;99.90;;;;;;4965606;28;20185;-85
2023/12/13 00:48:27;;;;;;;94.22;19.80;;;-1.30;99.90;;;;;;4950883;28;20197;-82
2023/12/13 00:50:56;;;;;;;44.45;16.70;;;-1.30;99.90;;;;;;4950935;28;20192;-83
2023/12/13 00:53:23;;;;;;;46.70;17.90;;;-1.30;99.90;;;;;;4951099;28;20703;-80
2023/12/13 00:55:52;;;;;;;58.75;18.88;;;-1.30;99.90;;;;;;4950904;29;20189;-85
2023/12/13 00:58:19;;;;;;;66.90;19.50;;;-1.30;99.90;;;;;;4948701;28;20212;-84
2023/12/13 01:00:47;;;;;;;80.57;19.20;;;-1.30;99.90;;;;;;4951027;28;20526;-81
2023/12/13 01:03:15;;;;;;;64.32;19.60;;;-1.30;99.90;;;;;;4951024;28;20584;-85
2023/12/13 01:05:42;;;;;;;69.07;18.08;;;-1.30;99.90;;;;;;4950997;28;20188;-85
2023/12/13 01:08:10;;;;;;;72.50;19.60;;;-1.30;99.90;;;;;;4952112;28;20196;-80
2023/12/13 01:10:37;;;;;;;47.13;17.38;;;-1.40;99.90;;;;;;4969064;28;20188;-83
2023/12/13 01:13:05;;;;;;;75.88;20.38;;;-1.30;99.90;;;;;;4954677;28;20252;-83
2023/12/13 01:15:32;;;;;;;66.28;19.02;;;-1.40;99.90;;;;;;4969103;28;20189;-81
2023/12/13 01:18:00;;;;;;;65.00;19.38;;;-1.40;99.90;;;;;;4954343;28;20216;-84
2023/12/13 01:20:27;;;;;;;53.78;19.60;;;-1.30;99.90;;;;;;4952522;28;20227;-84
2023/12/13 01:22:55;;;;;;;75.97;20.63;;;-1.30;99.90;;;;;;4954978;28;20211;-84
2023/12/13 01:25:22;;;;;;;58.03;19.05;;;-1.30;99.90;;;;;;4973579;28;20188;-82
2023/12/13 01:27:50;;;;;;;67.90;18.83;;;-1.30;99.90;;;;;;4973391;28;20198;-83
2023/12/13 01:30:17;;;;;;;40.85;16.70;;;-1.30;99.90;;;;;;4973272;28;20196;-85
2023/12/13 01:32:45;;;;;;;53.08;19.80;;;-1.30;99.90;;;;;;4956356;28;20199;-85
2023/12/13 01:35:12;;;;;;;117.22;22.45;;;-1.30;99.90;;;;;;4973276;28;20184;-85
2023/12/13 01:37:40;;;;;;;49.83;18.13;;;-1.30;99.90;;;;;;4973172;28;20286;-80
2023/12/13 01:40:08;;;;;;;65.32;19.23;;;-1.30;99.90;;;;;;4973476;28;20219;-85
2023/12/13 01:42:39;;;;;;;42.83;17.83;;;-1.30;99.90;;;;;;4956072;28;20267;-84
2023/12/13 01:45:08;;;;;;;70.75;18.75;;;-1.30;99.90;;;;;;4973221;28;20184;-83
2023/12/13 01:47:38;;;;;;;70.35;19.42;;;-1.30;99.90;;;;;;4973061;28;20279;-82
2023/12/13 01:50:07;;;;;;;73.57;18.45;;;-1.30;99.90;;;;;;4972828;28;20188;-82
2023/12/13 01:52:36;;;;;;;46.47;17.17;;;-1.40;99.90;;;;;;4973184;28;20287;-86
2023/12/13 01:55:07;;;;;;;52.42;18.35;;;-1.40;99.90;;;;;;4972856;28;20215;-84
2023/12/13 01:57:36;;;;;;;62.95;16.63;;;-1.30;99.90;;;;;;4972644;28;20192;-82
2023/12/13 02:00:04;;;;;;;45.25;16.83;;;-1.40;99.90;;;;;;4973063;28;20214;-85
2023/12/13 02:02:36;;;;;;;51.92;17.60;;;-1.30;99.90;;;;;;4973055;28;20180;-83
2023/12/13 02:05:07;;;;;;;45.50;17.02;;;-1.30;99.90;;;;;;4971722;28;20183;-84
2023/12/13 02:07:36;;;;;;;47.88;17.15;;;-1.30;99.90;;;;;;4955514;28;20172;-84
2023/12/13 02:10:06;;;;;;;40.13;15.90;;;-1.40;99.90;;;;;;4971436;28;20196;-83
2023/12/13 02:12:35;;;;;;;39.67;15.65;;;-1.40;99.90;;;;;;4971338;28;20666;-81
2023/12/13 02:15:04;;;;;;;40.65;16.98;;;-1.40;99.90;;;;;;4937585;28;20199;-84
2023/12/13 02:17:32;;;;;;;35.13;15.63;;;-1.40;99.90;;;;;;4972682;28;20761;-84
2023/12/13 02:20:01;;;;;;;30.15;13.18;;;-1.40;99.90;;;;;;4972256;28;20224;-83
2023/12/13 02:22:29;;;;;;;35.97;15.45;;;-1.40;99.90;;;;;;4972227;28;20205;-83
2023/12/13 02:24:58;;;;;;;33.75;14.07;;;-1.40;99.90;;;;;;4970431;28;20239;-82
2023/12/13 02:27:29;;;;;;;34.50;14.20;;;-1.40;99.90;;;;;;4972510;28;20196;-83
2023/12/13 02:29:57;;;;;;;33.53;14.15;;;-1.50;99.90;;;;;;4971292;28;20188;-85
2023/12/13 02:32:25;;;;;;;31.70;13.60;;;-1.40;99.90;;;;;;4971213;28;20263;-85
2023/12/13 02:34:54;;;;;;;32.13;14.85;;;-1.40;99.90;;;;;;4972218;28;20192;-84
2023/12/13 02:37:21;;;;;;;31.65;14.43;;;-1.40;99.90;;;;;;4972019;28;20275;-83
2023/12/13 02:39:49;;;;;;;32.90;14.05;;;-1.40;99.90;;;;;;4972215;28;20187;-83
2023/12/13 02:42:17;;;;;;;31.73;14.10;;;-1.40;99.90;;;;;;4969113;28;20194;-85
2023/12/13 02:44:44;;;;;;;34.10;15.63;;;-1.40;99.90;;;;;;4968977;28;20561;-84
2023/12/13 02:47:11;;;;;;;29.63;13.40;;;-1.40;99.90;;;;;;4972208;28;20188;-83
2023/12/13 02:49:39;;;;;;;28.48;13.57;;;-1.40;99.90;;;;;;4972486;28;20219;-83
2023/12/13 02:52:06;;;;;;;26.90;12.65;;;-1.40;99.90;;;;;;4972203;28;20188;-85
2023/12/13 02:54:34;;;;;;;30.80;14.60;;;-1.40;99.90;;;;;;4972272;28;20216;-82
2023/12/13 02:57:01;;;;;;;40.13;15.40;;;-1.40;99.90;;;;;;4972174;28;20195;-84
2023/12/13 02:59:29;;;;;;;31.67;13.35;;;-1.50;99.90;;;;;;4971996;28;20210;-84
2023/12/13 03:01:56;;;;;;;31.50;14.15;;;-1.50;99.90;;;;;;4972543;28;20188;-83
2023/12/13 03:04:23;;;;;;;34.38;14.43;;;-1.40;99.90;;;;;;4972299;28;20187;-84
2023/12/13 03:06:51;;;;;;;29.30;13.38;;;-1.50;99.90;;;;;;4971954;28;20211;-85
2023/12/13 03:09:19;;;;;;;30.58;14.10;;;-1.40;99.90;;;;;;4971914;28;20275;-84
2023/12/13 03:11:46;;;;;;;31.10;14.05;;;-1.40;99.90;;;;;;4971498;28;20283;-84
2023/12/13 03:14:14;;;;;;;36.40;15.63;;;-1.50;99.90;;;;;;4971703;28;20255;-85
2023/12/13 03:16:41;;;;;;;30.38;13.88;;;-1.50;99.90;;;;;;4971339;28;20191;-85
2023/12/13 03:19:09;;;;;;;41.78;15.65;;;-1.50;99.90;;;;;;4971768;28;20204;-85
2023/12/13 03:21:36;;;;;;;36.83;15.45;;;-1.50;99.90;;;;;;4971364;28;20187;-83
2023/12/13 03:24:04;;;;;;;35.97;16.42;;;-1.50;99.90;;;;;;4953972;28;20591;-83
2023/12/13 03:26:31;;;;;;;33.65;14.77;;;-1.50;99.90;;;;;;4971343;28;20247;-86
2023/12/13 03:28:59;;;;;;;34.08;15.43;;;-1.50;99.90;;;;;;4971406;28;20198;-83
2023/12/13 03:31:26;;;;;;;34.08;14.32;;;-1.40;99.90;;;;;;4968085;28;20254;-84
2023/12/13 03:33:55;;;;;;;35.17;15.25;;;-1.50;99.90;;;;;;4968806;28;20188;-83
2023/12/13 03:36:22;;;;;;;33.60;14.02;;;-1.40;99.90;;;;;;4968384;28;20246;-84
2023/12/13 03:38:50;;;;;;;35.28;16.08;;;-1.50;99.90;;;;;;4970227;28;20211;-83
2023/12/13 03:41:17;;;;;;;38.28;16.35;;;-1.50;99.90;;;;;;4970929;28;20192;-84
2023/12/13 03:43:45;;;;;;;30.25;15.05;;;-1.50;99.90;;;;;;4971202;28;20756;-84
2023/12/13 03:46:12;;;;;;;35.95;16.38;;;-1.40;99.90;;;;;;4970931;28;20191;-86
2023/12/13 03:48:40;;;;;;;38.38;16.40;;;-1.50;99.90;;;;;;4971119;28;20215;-82
2023/12/13 03:51:07;;;;;;;30.88;14.73;;;-1.50;99.90;;;;;;4971192;28;20188;-85
2023/12/13 03:53:38;;;;;;;31.13;14.63;;;-1.50;99.90;;;;;;4969839;28;20562;-83
2023/12/13 03:56:05;;;;;;;31.55;15.57;;;-1.50;99.90;;;;;;4969770;28;20191;-84
2023/12/13 03:58:34;;;;;;;31.33;15.30;;;-1.50;99.90;;;;;;4970823;28;20212;-84
2023/12/13 04:01:01;;;;;;;35.60;15.10;;;-1.50;99.90;;;;;;4969141;28;20234;-83
2023/12/13 04:03:29;;;;;;;35.22;17.05;;;-1.50;99.90;;;;;;4970880;28;20188;-85
2023/12/13 04:05:57;;;;;;;35.47;15.68;;;-1.50;99.90;;;;;;4970778;28;20184;-83
2023/12/13 04:08:24;;;;;;;36.35;16.17;;;-1.50;99.90;;;;;;4970561;28;20239;-85
2023/12/13 04:10:52;;;;;;;38.22;17.25;;;-1.40;99.90;;;;;;4969287;28;20203;-83
2023/12/13 04:13:19;;;;;;;34.15;15.88;;;-1.50;99.90;;;;;;4975083;28;20673;-85
2023/12/13 04:15:47;;;;;;;30.23;13.73;;;-1.50;99.90;;;;;;4989811;28;20227;-85
2023/12/13 04:18:15;;;;;;;33.53;15.23;;;-1.50;99.90;;;;;;4972669;28;20261;-86
2023/12/13 04:20:42;;;;;;;31.65;14.77;;;-1.40;99.90;;;;;;4989789;28;20191;-84
2023/12/13 04:23:10;;;;;;;33.67;14.55;;;-1.50;99.90;;;;;;4989623;28;20222;-83
2023/12/13 04:25:38;;;;;;;38.38;15.90;;;-1.50;99.90;;;;;;4987425;28;20206;-85
2023/12/13 04:28:06;;;;;;;35.55;15.27;;;-1.50;99.90;;;;;;4986760;28;20183;-83
2023/12/13 04:30:34;;;;;;;37.88;15.82;;;-1.50;99.90;;;;;;4985093;28;20645;-81
2023/12/13 04:33:02;;;;;;;37.85;17.08;;;-1.50;99.90;;;;;;4989332;28;20191;-84
2023/12/13 04:35:32;;;;;;;37.20;16.83;;;-1.40;99.90;;;;;;4988413;28;20802;-85
2023/12/13 04:37:59;;;;;;;37.20;15.73;;;-1.50;99.90;;;;;;4988429;28;20295;-84
2023/12/13 04:40:28;;;;;;;33.38;15.38;;;-1.50;99.90;;;;;;4989560;28;20187;-84
2023/12/13 04:42:56;;;;;;;37.33;15.77;;;-1.60;99.90;;;;;;4991875;28;20198;-83
2023/12/13 04:45:23;;;;;;;34.50;16.23;;;-1.60;99.90;;;;;;4976458;28;20689;-82
2023/12/13 04:47:51;;;;;;;34.75;16.13;;;-1.50;99.90;;;;;;4993841;28;20720;-84
2023/12/13 04:50:19;;;;;;;39.72;17.45;;;-1.50;99.90;;;;;;4993573;28;20179;-82
2023/12/13 04:52:46;;;;;;;44.47;19.50;;;-1.50;99.90;;;;;;4993665;28;20649;-85
2023/12/13 04:55:14;;;;;;;39.92;17.55;;;-1.40;99.90;;;;;;4993645;28;20190;-85
2023/12/13 04:57:41;;;;;;;36.42;17.05;;;-1.50;99.90;;;;;;4993905;28;20179;-84
2023/12/13 05:00:09;;;;;;;43.80;18.63;;;-1.50;99.90;;;;;;4993083;28;20180;-83
2023/12/13 05:02:39;;;;;;;45.53;17.98;;;-1.50;99.90;;;;;;4985983;28;20552;-84
2023/12/13 05:05:07;;;;;;;41.28;18.30;;;-1.50;99.90;;;;;;4974378;28;20263;-84
2023/12/13 05:07:34;;;;;;;36.08;16.65;;;-1.50;99.90;;;;;;4956922;28;20188;-84
2023/12/13 05:10:03;;;;;;;36.55;16.63;;;-1.50;99.90;;;;;;4972823;28;20215;-84
2023/12/13 05:12:31;;;;;;;41.55;18.50;;;-1.50;99.90;;;;;;4973387;28;20203;-84
2023/12/13 05:14:58;;;;;;;43.60;17.67;;;-1.50;99.90;;;;;;4970878;28;20235;-82
2023/12/13 05:17:25;;;;;;;44.72;18.67;;;-1.60;99.90;;;;;;4978623;28;20214;-85
2023/12/13 05:19:53;;;;;;;44.30;19.65;;;-1.60;99.90;;;;;;4991534;28;20257;-83
2023/12/13 05:22:22;;;;;;;43.22;19.30;;;-1.60;99.90;;;;;;4976704;28;20188;-83
2023/12/13 05:24:50;;;;;;;41.15;18.92;;;-1.60;99.90;;;;;;4954952;28;20302;-84
2023/12/13 05:27:17;;;;;;;42.83;17.80;;;-1.70;99.90;;;;;;4955827;28;20196;-83
2023/12/13 05:29:45;;;;;;;46.75;18.33;;;-1.70;99.90;;;;;;4973387;28;20207;-84
2023/12/13 05:32:12;;;;;;;41.05;18.40;;;-1.70;99.90;;;;;;4972135;28;20192;-82
2023/12/13 05:34:40;;;;;;;46.17;20.00;;;-1.70;99.90;;;;;;4973540;28;20298;-84
2023/12/13 05:37:07;;;;;;;48.95;20.67;;;-1.70;99.90;;;;;;4971788;28;20689;-84
2023/12/13 05:39:35;;;;;;;44.72;19.13;;;-1.70;99.90;;;;;;4973270;28;20681;-85
2023/12/13 05:42:03;;;;;;;49.70;20.40;;;-1.70;99.90;;;;;;4973287;28;20267;-81
2023/12/13 05:44:30;;;;;;;43.70;19.85;;;-1.70;99.90;;;;;;4973457;28;20232;-82
2023/12/13 05:46:58;;;;;;;46.00;20.70;;;-1.70;99.90;;;;;;4974082;28;20184;-83
2023/12/13 05:49:25;;;;;;;61.28;21.77;;;-1.70;99.90;;;;;;4974037;28;20192;-84
2023/12/13 05:51:53;;;;;;;45.67;19.42;;;-1.70;99.90;;;;;;4973239;28;20239;-85
2023/12/13 05:54:20;;;;;;;64.88;21.80;;;-1.70;99.90;;;;;;4972848;28;20191;-82
2023/12/13 05:56:48;;;;;;;51.88;21.80;;;-1.70;99.90;;;;;;4977226;28;20207;-84
2023/12/13 05:59:15;;;;;;;58.55;21.48;;;-1.70;99.90;;;;;;4975185;28;20211;-83
2023/12/13 06:01:43;;;;;;;56.75;21.02;;;-1.70;99.90;;;;;;4972802;28;20259;-84
2023/12/13 06:04:10;;;;;;;53.20;20.38;;;-1.60;99.90;;;;;;4972679;28;20208;-82
2023/12/13 06:06:48;;;;;;;48.40;19.98;;;-1.70;99.90;;;;;;4972816;28;20267;-84
2023/12/13 06:09:16;;;;;;;54.33;21.13;;;-1.60;99.90;;;;;;4972777;28;20176;-82
2023/12/13 06:11:43;;;;;;;52.03;22.00;;;-1.60;99.90;;;;;;4971519;28;20271;-84
2023/12/13 06:14:11;;;;;;;48.13;20.45;;;-1.60;99.90;;;;;;4972636;28;20659;-82
2023/12/13 06:16:38;;;;;;;55.15;20.45;;;-1.60;99.90;;;;;;4955560;28;20196;-82
2023/12/13 06:19:06;;;;;;;52.53;21.98;;;-1.60;99.90;;;;;;4972358;28;20204;-82
2023/12/13 06:21:34;;;;;;;49.90;19.45;;;-1.60;99.90;;;;;;4971157;28;20267;-80
2023/12/13 06:24:02;;;;;;;57.58;21.98;;;-1.60;99.90;;;;;;4972517;28;20230;-82
2023/12/13 06:26:30;;;;;;;46.03;20.20;;;-1.60;99.90;;;;;;4978096;28;20206;-82
2023/12/13 06:28:57;;;;;;;49.05;20.02;;;-1.70;99.90;;;;;;4978764;28;20585;-84
2023/12/13 06:31:25;;;;;;;57.17;22.00;;;-1.70;99.90;;;;;;4990772;28;20187;-83
2023/12/13 06:33:52;;;;;;;45.75;19.02;;;-1.60;99.90;;;;;;4991891;28;20187;-83
2023/12/13 06:36:20;;;;;;;44.70;19.30;;;-1.60;99.90;;;;;;4992147;28;20733;-85
2023/12/13 06:38:47;;;;;;;45.05;20.35;;;-1.60;99.90;;;;;;4992007;28;20196;-82
2023/12/13 06:41:14;;;;;;;67.07;21.50;;;-1.70;99.90;;;;;;4991556;28;20183;-84
2023/12/13 06:43:42;;;;;;;52.65;22.05;;;-1.70;99.90;;;;;;4990521;28;20210;-82
2023/12/13 06:46:09;;;;;;;52.70;21.55;;;-1.70;99.90;;;;;;4991491;28;20206;-85
2023/12/13 06:48:37;;;;;;;53.17;21.20;;;-1.60;99.90;;;;;;4991867;28;20183;-84
2023/12/13 06:51:05;;;;;;;46.53;19.77;;;-1.60;99.90;;;;;;4970739;28;20195;-83
2023/12/13 06:53:37;;;;;;;49.22;20.88;;;-1.60;99.90;;;;;;4987814;28;20983;-85
2023/12/13 06:56:05;;;;;;;51.85;22.17;;;-1.60;99.90;;;;;;4991226;28;20332;-84
2023/12/13 06:58:34;;;;;;;47.33;19.92;;;-1.60;99.90;;;;;;4991140;28;20286;-81
2023/12/13 07:01:02;;;;;;;42.72;17.77;;;-1.60;99.90;;;;;;4991205;28;20184;-81
2023/12/13 07:03:30;;;;;;;44.65;20.33;;;-1.60;99.90;;;;;;4991362;28;20207;-85
2023/12/13 07:05:57;;;;;;;65.72;23.42;;;-1.60;99.90;;;;;;4990009;28;20211;-83
2023/12/13 07:08:25;;;;;;;49.65;21.15;;;-1.60;99.90;;;;;;4973603;28;20250;-85
2023/12/13 07:10:52;;;;;;;49.60;20.10;;;-1.60;99.90;;;;;;4991196;28;20195;-84
2023/12/13 07:13:20;;;;;;;51.22;21.52;;;-1.60;99.90;;;;;;4991009;28;20188;-82
2023/12/13 07:15:47;;;;;;;59.78;21.20;;;-1.60;99.90;;;;;;4990765;28;20201;-84
2023/12/13 07:18:15;;;;;;;44.50;20.13;;;-1.60;99.90;;;;;;4989525;28;20191;-84
2023/12/13 07:20:43;;;;;;;40.03;19.02;;;-1.60;99.90;;;;;;4990976;28;20210;-84
2023/12/13 07:23:10;;;;;;;46.83;21.02;;;-1.60;99.90;;;;;;4990532;28;20302;-84
2023/12/13 07:25:41;;;;;;;62.33;19.48;;;-1.50;99.90;;;;;;4990667;28;20234;-84
2023/12/13 07:28:08;;;;;;;37.58;17.08;;;-1.60;99.90;;;;;;4990625;28;20709;-84
2023/12/13 07:30:36;;;;;;;40.03;17.38;;;-1.60;99.90;;;;;;4990677;28;20653;-83
2023/12/13 07:33:08;;;;;;;38.35;17.58;;;-1.60;99.90;;;;;;4990745;28;20246;-83
2023/12/13 07:35:36;;;;;;;40.33;16.85;;;-1.70;99.90;;;;;;4989644;28;20195;-84
2023/12/13 07:38:04;;;;;;;42.40;17.70;;;-1.60;99.90;;;;;;4990987;28;20198;-83
2023/12/13 07:40:32;;;;;;;56.55;17.67;;;-1.60;99.90;;;;;;4990530;28;20286;-83
2023/12/13 07:42:59;;;;;;;40.92;16.92;;;-1.70;99.90;;;;;;4990449;28;20196;-84
2023/12/13 07:45:26;;;;;;;43.35;17.27;;;-1.70;99.90;;;;;;4990669;28;20263;-85
2023/12/13 07:47:54;;;;;;;41.25;17.05;;;-1.60;99.90;;;;;;4989432;28;20265;-84
2023/12/13 07:50:39;;;;;;;37.38;16.80;;;-1.60;99.90;;;;;;4987213;28;20222;-84
2023/12/13 07:53:07;;;;;;;45.15;18.20;;;-1.60;99.90;;;;;;4988851;28;20194;-84
2023/12/13 07:55:35;;;;;;;52.30;18.80;;;-1.60;99.90;;;;;;4990142;28;20211;-84
2023/12/13 07:58:02;;;;;;;41.90;17.42;;;-1.60;99.90;;;;;;4988358;28;20191;-82
2023/12/13 08:00:30;;;;;;;46.72;17.10;;;-1.60;99.90;;;;;;4985337;28;20238;-84
2023/12/13 08:02:58;;;;;;;48.17;18.92;;;-1.60;99.90;;;;;;4985391;28;20187;-85
2023/12/13 08:05:27;;;;;;;44.95;17.25;;;-1.60;99.90;;;;;;4987171;28;20180;-82
2023/12/13 08:07:55;;;;;;;40.28;16.95;;;-1.50;99.90;;;;;;4967985;28;20673;-84
2023/12/13 08:10:24;;;;;;;53.00;17.08;;;-1.60;99.90;;;;;;4970370;28;20267;-83
2023/12/13 08:12:52;;;;;;;54.47;17.83;;;-1.60;99.90;;;;;;4970430;28;20187;-83
2023/12/13 08:15:27;;;;;;;58.53;18.80;;;-1.60;99.90;;;;;;4967816;28;20187;-83
2023/12/13 08:17:55;;;;;;;40.70;17.23;;;-1.70;99.90;;;;;;4989408;28;20196;-84
2023/12/13 08:20:28;;;;;;;42.92;17.52;;;-1.70;99.90;;;;;;4988545;28;20699;-84
2023/12/13 08:22:57;;;;;;;48.10;19.10;;;-1.60;99.90;;;;;;4989924;28;20183;-84
2023/12/13 08:25:25;;;;;;;48.50;18.35;;;-1.60;99.90;;;;;;4988664;28;20266;-84
2023/12/13 08:27:52;;;;;;;40.40;16.85;;;-1.60;99.90;;;;;;4989402;28;20191;-84
2023/12/13 08:30:21;;;;;;;43.75;17.50;;;-1.60;99.90;;;;;;4988551;28;20202;-84
2023/12/13 08:32:49;;;;;;;40.65;15.98;;;-1.60;99.90;;;;;;4988335;28;20195;-80
2023/12/13 08:35:16;;;;;;;40.30;16.52;;;-1.60;99.90;;;;;;4989946;28;20183;-83
2023/12/13 08:37:44;;;;;;;40.45;18.35;;;-1.60;99.90;;;;;;4986125;28;20219;-83
2023/12/13 08:40:12;;;;;;;40.20;16.48;;;-1.60;99.90;;;;;;4990106;28;20718;-83
2023/12/13 08:42:39;;;;;;;39.38;17.65;;;-1.50;99.90;;;;;;4989873;28;20237;-81
2023/12/13 08:45:12;;;;;;;46.53;18.33;;;-1.50;99.90;;;;;;4988476;28;20249;-84
2023/12/13 08:47:40;;;;;;;45.05;17.90;;;-1.50;99.90;;;;;;4989553;28;20557;-84
2023/12/13 08:50:08;;;;;;;48.33;17.92;;;-1.50;99.90;;;;;;4972265;28;20190;-84
2023/12/13 08:52:35;;;;;;;48.42;19.38;;;-1.50;99.90;;;;;;4989370;28;20191;-83
2023/12/13 08:55:03;;;;;;;45.67;18.90;;;-1.60;99.90;;;;;;4987956;28;20668;-83
2023/12/13 08:57:31;;;;;;;48.33;19.13;;;-1.60;99.90;;;;;;4988547;28;20187;-83
2023/12/13 08:59:59;;;;;;;43.17;18.65;;;-1.60;99.90;;;;;;4988808;28;20998;-83
2023/12/13 09:02:36;;;;;;;45.28;18.60;;;-1.60;99.90;;;;;;4968716;28;20196;-82
2023/12/13 09:05:04;;;;;;;46.60;18.65;;;-1.60;99.90;;;;;;4968779;28;20717;-82
2023/12/13 09:07:32;;;;;;;50.13;18.45;;;-1.50;99.90;;;;;;4967817;28;20181;-81
2023/12/13 09:10:00;;;;;;;52.95;18.90;;;-1.50;99.90;;;;;;4967395;28;20203;-84
2023/12/13 09:12:28;;;;;;;95.32;21.13;;;-1.60;99.90;;;;;;4967303;28;20275;-83
2023/12/13 09:14:55;;;;;;;50.47;19.15;;;-1.50;99.90;;;;;;4967066;28;20192;-82
2023/12/13 09:17:26;;;;;;;97.28;23.08;;;-1.60;99.90;;;;;;4969033;28;20694;-83
2023/12/13 09:19:53;;;;;;;53.70;21.05;;;-1.60;99.90;;;;;;4969885;28;20204;-83
2023/12/13 09:22:21;;;;;;;56.58;19.88;;;-1.50;99.90;;;;;;4969846;28;20243;-83
2023/12/13 09:24:48;;;;;;;51.35;19.83;;;-1.50;99.90;;;;;;4969515;28;20231;-82
2023/12/13 09:27:15;;;;;;;48.72;18.60;;;-1.50;99.90;;;;;;4969901;28;20549;-83
2023/12/13 09:29:43;;;;;;;67.20;19.65;;;-1.50;99.90;;;;;;4971696;28;20190;-83
2023/12/13 09:32:11;;;;;;;48.00;19.55;;;-1.50;99.90;;;;;;4973718;28;20604;-82
2023/12/13 09:34:39;;;;;;;47.58;19.65;;;-1.50;99.90;;;;;;4973459;28;20262;-84
2023/12/13 09:37:06;;;;;;;54.80;21.13;;;-1.50;99.90;;;;;;4973522;28;20224;-82
2023/12/13 09:39:34;;;;;;;62.20;18.77;;;-1.50;99.90;;;;;;4971524;28;20208;-83
2023/12/13 09:42:04;;;;;;;61.20;21.55;;;-1.50;99.90;;;;;;4970235;28;20180;-84
2023/12/13 09:44:39;;;;;;;68.80;21.48;;;-1.40;99.90;;;;;;4952919;28;20179;-82
2023/12/13 09:47:09;;;;;;;51.60;20.30;;;-1.50;99.90;;;;;;4970384;28;20176;-82
2023/12/13 09:49:37;;;;;;;64.80;19.15;;;-1.50;99.90;;;;;;4971055;28;20196;-83
2023/12/13 09:52:10;;;;;;;56.55;21.13;;;-1.50;99.90;;;;;;4955760;28;20532;-83
2023/12/13 09:54:39;;;;;;;46.20;18.23;;;-1.50;99.90;;;;;;4955952;28;20196;-84
2023/12/13 09:57:07;;;;;;;72.55;19.75;;;-1.40;99.90;;;;;;4976429;28;20198;-83
2023/12/13 09:59:36;;;;;;;85.53;21.92;;;-1.50;99.90;;;;;;4992657;28;20207;-81
2023/12/13 10:02:10;;;;;;;72.03;20.75;;;-1.50;99.90;;;;;;4992623;28;20654;-83
2023/12/13 10:04:38;;;;;;;53.60;19.00;;;-1.50;99.90;;;;;;4992269;28;20301;-84
2023/12/13 10:07:07;;;;;;;60.28;20.58;;;-1.50;99.90;;;;;;4990697;28;20191;-82
2023/12/13 10:09:35;;;;;;;66.15;20.33;;;-1.50;99.90;;;;;;4992164;28;20195;-83
2023/12/13 10:12:07;;;;;;;104.15;22.02;;;-1.50;99.90;;;;;;4989466;28;20191;-83
2023/12/13 10:14:35;;;;;;;62.08;20.63;;;-1.50;99.90;;;;;;4988403;28;20206;-84
2023/12/13 10:17:03;;;;;;;68.28;19.73;;;-1.50;99.90;;;;;;4992064;28;20191;-81
2023/12/13 10:19:45;;;;;;;49.70;19.33;;;-1.50;99.90;;;;;;4991926;28;20214;-81
2023/12/13 10:22:15;;;;;;;57.40;21.10;;;-1.50;99.90;;;;;;4992052;28;20582;-83
2023/12/13 10:24:43;;;;;;;56.15;20.20;;;-1.50;99.90;;;;;;4991570;28;20665;-83
2023/12/13 10:27:10;;;;;;;71.22;23.02;;;-1.40;99.90;;;;;;4974599;28;20195;-84
2023/12/13 10:29:38;;;;;;;57.88;21.45;;;-1.50;99.90;;;;;;4983829;28;20191;-82
2023/12/13 10:32:05;;;;;;;89.80;20.98;;;-1.50;99.90;;;;;;4991823;28;20901;-83
2023/12/13 10:34:33;;;;;;;51.90;20.58;;;-1.50;99.90;;;;;;4990445;28;20198;-83
2023/12/13 10:37:00;;;;;;;63.20;22.95;;;-1.50;99.90;;;;;;4991571;28;20941;-84
2023/12/13 10:39:30;;;;;;;65.50;22.15;;;-1.50;99.90;;;;;;4990785;28;20274;-79
2023/12/13 10:42:11;;;;;;;53.20;22.17;;;-1.50;99.90;;;;;;4991405;28;20917;-82
2023/12/13 10:44:40;;;;;;;88.15;21.92;;;-1.40;99.90;;;;;;4991835;28;20190;-84
2023/12/13 10:47:08;;;;;;;43.90;19.60;;;-1.40;99.90;;;;;;4991263;28;20183;-82
2023/12/13 10:49:37;;;;;;;67.47;22.13;;;-1.40;99.90;;;;;;4991373;28;20198;-80
2023/12/13 10:52:08;;;;;;;60.38;21.13;;;-1.50;99.90;;;;;;4991364;28;20183;-84
2023/12/13 10:54:38;;;;;;;63.65;20.88;;;-1.50;99.90;;;;;;4989874;28;20171;-83
2023/12/13 10:57:06;;;;;;;135.75;24.35;;;-1.40;99.90;;;;;;4988950;28;20206;-83
2023/12/13 10:59:36;;;;;;;63.22;22.13;;;-1.50;99.90;;;;;;4991154;28;20207;-83
2023/12/13 11:02:05;;;;;;;80.47;22.08;;;-1.50;99.90;;;;;;4974637;28;20188;-80
2023/12/13 11:04:33;;;;;;;59.63;22.05;;;-1.50;99.90;;;;;;4969322;28;20328;-81
2023/12/13 11:07:06;;;;;;;55.03;21.17;;;-1.50;99.90;;;;;;4971655;28;20196;-82
2023/12/13 11:09:49;;;;;;;58.42;21.98;;;-1.50;99.90;;;;;;4955190;28;20618;-84
2023/12/13 11:12:20;;;;;;;57.55;20.63;;;-1.40;99.90;;;;;;4971768;28;20168;-83
2023/12/13 11:14:51;;;;;;;62.40;21.55;;;-1.40;99.90;;;;;;4971697;28;20176;-83
2023/12/13 11:17:21;;;;;;;69.97;21.50;;;-1.40;99.90;;;;;;4969764;28;20789;-81
2023/12/13 11:19:51;;;;;;;52.05;21.38;;;-1.50;99.90;;;;;;4968504;28;20315;-83
2023/12/13 11:22:23;;;;;;;49.45;19.67;;;-1.40;99.90;;;;;;4968647;28;20211;-84
2023/12/13 11:25:06;;;;;;;60.63;22.20;;;-1.50;99.90;;;;;;4964231;28;20224;-79
2023/12/13 11:27:34;;;;;;;55.70;19.85;;;-1.50;99.90;;;;;;4952443;28;20173;-84
2023/12/13 11:30:15;;;;;;;51.40;21.45;;;-1.40;99.90;;;;;;4952478;29;20196;-82
2023/12/13 11:32:45;;;;;;;65.70;22.67;;;-1.40;99.90;;;;;;4952265;28;20185;-83
2023/12/13 11:35:16;;;;;;;59.85;22.33;;;-1.50;99.90;;;;;;4952491;28;20200;-83
2023/12/13 11:37:59;;;;;;;55.38;22.63;;;-1.40;99.90;;;;;;4952002;28;20191;-84
2023/12/13 11:40:28;;;;;;;73.97;23.45;;;-1.40;99.90;;;;;;4966121;28;20779;-84
2023/12/13 11:42:55;;;;;;;58.13;22.35;;;-1.40;99.90;;;;;;4969643;28;20203;-83
2023/12/13 11:45:23;;;;;;;74.68;24.70;;;-1.40;99.90;;;;;;4985675;28;20188;-83
2023/12/13 11:47:50;;;;;;;67.65;22.80;;;-1.40;99.90;;;;;;4971387;28;20199;-83
2023/12/13 11:50:19;;;;;;;66.07;22.38;;;-1.40;99.90;;;;;;4985995;28;20200;-83
2023/12/13 11:52:47;;;;;;;78.10;24.17;;;-1.30;99.90;;;;;;4969119;28;20184;-83
2023/12/13 11:55:17;;;;;;;61.30;23.75;;;-1.40;99.90;;;;;;4968017;28;20239;-82
2023/12/13 11:57:50;;;;;;;66.72;26.02;;;-1.40;99.90;;;;;;4970880;28;20178;-83
2023/12/13 12:00:19;;;;;;;63.03;24.98;;;-1.40;99.90;;;;;;4970655;28;20234;-82
2023/12/13 12:02:46;;;;;;;58.45;22.60;;;-1.30;99.90;;;;;;4985770;28;20228;-82
2023/12/13 12:05:14;;;;;;;60.50;24.30;;;-1.40;99.90;;;;;;4966513;28;20192;-82
2023/12/13 12:07:41;;;;;;;65.55;24.23;;;-1.40;99.90;;;;;;4984588;28;20207;-81
2023/12/13 12:10:10;;;;;;;60.33;23.38;;;-1.30;99.90;;;;;;4970707;28;20685;-82
2023/12/13 12:12:38;;;;;;;75.43;25.17;;;-1.30;99.90;;;;;;4970831;28;20563;-84
2023/12/13 12:15:07;;;;;;;60.35;22.67;;;-1.30;99.90;;;;;;4970037;28;20204;-83
2023/12/13 12:17:35;;;;;;;70.97;23.00;;;-1.30;99.90;;;;;;4970667;28;20192;-83
2023/12/13 12:20:03;;;;;;;72.85;23.92;;;-1.30;99.90;;;;;;4970428;28;20300;-82
2023/12/13 12:22:33;;;;;;;79.07;25.38;;;-1.30;99.90;;;;;;4970665;28;20263;-84
2023/12/13 12:25:01;;;;;;;49.40;20.38;;;-1.30;99.90;;;;;;4989333;28;20697;-82
2023/12/13 12:27:28;;;;;;;68.97;22.80;;;-1.30;99.90;;;;;;4990088;28;20596;-84
2023/12/13 12:29:56;;;;;;;55.30;22.30;;;-1.30;99.90;;;;;;4990042;28;20185;-84
2023/12/13 12:32:23;;;;;;;59.63;21.77;;;-1.30;99.90;;;;;;4990178;28;20218;-84